Time;durP1;ratioP1;P1;durP2;ratioP2;P2;SDS_P1;SDS_P2;PMS_P1;PMS_P2;Temp;Humidity;BMP_temperature;BMP_pressure;BME280_temperature;BME280_humidity;BME280_pressure;Samples;Min_cycle;Max_cycle;Signal;HPM_P1;HPM_P2
2022/02/24 00:04:05;;;;;;;48.90;22.50;;;;;;;-1.04;76.27;100586.63;214607;1276;140419;-73
2022/02/24 00:09:10;;;;;;;45.30;21.60;;;;;;;-1.00;76.49;100582.23;215363;1276;141639;-71
2022/02/24 00:14:15;;;;;;;41.90;19.50;;;;;;;-0.96;76.29;100585.84;214220;1275;142644;-68
2022/02/24 00:19:20;;;;;;;43.80;22.20;;;;;;;-0.97;76.21;100585.81;215410;1276;142165;-68
2022/02/24 00:24:24;;;;;;;44.30;22.30;;;;;;;-1.02;76.13;100587.66;215520;1275;141786;-74
2022/02/24 00:29:29;;;;;;;37.90;20.60;;;;;;;-1.04;76.32;100585.67;212872;1276;141932;-70
2022/02/24 00:34:34;;;;;;;46.60;23.10;;;;;;;-1.03;76.54;100586.62;213734;1276;142084;-70
2022/02/24 00:39:38;;;;;;;45.10;18.60;;;;;;;-1.06;76.38;100585.05;212928;1276;141349;-70
2022/02/24 00:44:42;;;;;;;40.90;18.30;;;;;;;-1.15;76.66;100581.77;213219;1275;141640;-70
2022/02/24 00:49:49;;;;;;;48.40;20.50;;;;;;;-1.22;76.81;100588.02;214163;1276;142389;-71
2022/02/24 00:54:53;;;;;;;42.40;20.90;;;;;;;-1.23;77.22;100585.92;213548;1276;141216;-69
2022/02/24 00:59:59;;;;;;;44.30;19.10;;;;;;;-1.26;76.87;100583.39;213899;1275;141304;-71
2022/02/24 01:05:04;;;;;;;41.40;22.10;;;;;;;-1.32;77.01;100579.39;213638;1276;141835;-71
2022/02/24 01:10:09;;;;;;;44.50;20.00;;;;;;;-1.39;77.08;100569.52;212741;1276;164683;-70
2022/02/24 01:15:14;;;;;;;38.70;21.20;;;;;;;-1.44;77.27;100568.39;213419;1276;142029;-67
2022/02/24 01:20:18;;;;;;;34.90;16.40;;;;;;;-1.47;77.41;100566.08;213116;1277;142266;-70
2022/02/24 01:25:22;;;;;;;44.00;22.10;;;;;;;-1.52;77.67;100566.19;214751;1276;223377;-71
2022/02/24 01:30:26;;;;;;;27.40;14.80;;;;;;;-1.55;77.72;100561.21;214610;1276;141852;-70
2022/02/24 01:35:30;;;;;;;45.20;20.90;;;;;;;-1.58;78.04;100553.79;214185;1276;143670;-70
2022/02/24 01:40:34;;;;;;;47.30;21.80;;;;;;;-1.58;77.86;100544.79;215180;1276;140790;-70
2022/02/24 01:45:38;;;;;;;45.80;18.70;;;;;;;-1.55;78.07;100540.48;215546;1275;141017;-72
2022/02/24 01:50:43;;;;;;;45.50;21.30;;;;;;;-1.48;78.21;100542.13;215464;1276;142265;-70
2022/02/24 01:55:48;;;;;;;54.40;22.10;;;;;;;-1.47;77.92;100534.50;215690;1275;162038;-71
2022/02/24 02:00:52;;;;;;;40.10;15.40;;;;;;;-1.47;78.04;100535.91;215752;1276;140807;-69
2022/02/24 02:05:56;;;;;;;43.20;19.50;;;;;;;-1.46;78.25;100536.81;215702;1276;140856;-72
2022/02/24 02:11:02;;;;;;;36.50;19.40;;;;;;;-1.40;78.51;100539.80;215672;1276;141843;-72
2022/02/24 02:16:09;;;;;;;35.80;18.40;;;;;;;-1.31;78.55;100532.02;214291;1276;140594;-68
2022/02/24 02:21:14;;;;;;;47.90;19.40;;;;;;;-1.28;78.32;100524.58;213025;1276;140599;-68
2022/02/24 02:26:19;;;;;;;42.60;21.50;;;;;;;-1.28;78.40;100521.80;213431;1276;140853;-69
2022/02/24 02:31:23;;;;;;;48.50;21.50;;;;;;;-1.28;78.46;100521.68;214058;1276;397694;-75
2022/02/24 02:36:27;;;;;;;36.30;17.90;;;;;;;-1.26;78.51;100526.56;213543;1276;141113;-74
2022/02/24 02:41:32;;;;;;;39.60;18.90;;;;;;;-1.27;78.44;100518.77;213764;1276;140287;-72
2022/02/24 02:46:36;;;;;;;37.90;18.00;;;;;;;-1.37;78.17;100517.36;213835;1275;141267;-72
2022/02/24 02:51:41;;;;;;;45.30;18.30;;;;;;;-1.47;78.26;100510.05;213829;1276;140487;-72
2022/02/24 02:56:46;;;;;;;26.30;15.20;;;;;;;-1.53;78.47;100504.35;212655;1276;142731;-71
2022/02/24 03:01:53;;;;;;;31.00;12.90;;;;;;;-1.57;78.65;100503.08;213738;1277;141917;-73
2022/02/24 03:06:57;;;;;;;31.50;16.30;;;;;;;-1.60;79.04;100500.56;213560;1276;142730;-74
2022/02/24 03:12:02;;;;;;;30.40;14.00;;;;;;;-1.62;79.15;100491.84;213293;1276;140662;-70
2022/02/24 03:17:07;;;;;;;38.00;17.40;;;;;;;-1.61;79.51;100492.08;214442;1275;141040;-72
2022/02/24 03:22:12;;;;;;;40.90;14.20;;;;;;;-1.60;79.64;100488.81;213274;1276;141181;-71
2022/02/24 03:27:17;;;;;;;46.20;18.10;;;;;;;-1.60;79.87;100482.53;213639;1276;140813;-67
2022/02/24 03:32:22;;;;;;;37.00;14.30;;;;;;;-1.58;79.74;100481.00;214272;1274;141963;-68
2022/02/24 03:37:27;;;;;;;24.80;13.20;;;;;;;-1.60;79.73;100478.60;214765;1276;142020;-68
2022/02/24 03:42:33;;;;;;;26.80;13.10;;;;;;;-1.66;79.58;100473.48;214715;1276;140775;-68
2022/02/24 03:47:37;;;;;;;20.80;11.20;;;;;;;-1.69;79.63;100470.34;215701;1276;141371;-69
2022/02/24 03:52:41;;;;;;;31.70;12.20;;;;;;;-1.73;79.63;100466.10;213346;1277;142205;-67
2022/02/24 03:57:45;;;;;;;26.20;14.00;;;;;;;-1.75;79.85;100466.07;213242;1277;144696;-68
2022/02/24 04:02:49;;;;;;;29.40;13.70;;;;;;;-1.77;80.09;100463.10;215674;1276;141023;-69
2022/02/24 04:07:54;;;;;;;25.30;13.30;;;;;;;-1.74;80.17;100460.79;215621;1276;140731;-70
2022/02/24 04:12:58;;;;;;;42.10;16.50;;;;;;;-1.71;80.26;100455.76;214506;1275;140547;-69
2022/02/24 04:18:03;;;;;;;31.80;17.00;;;;;;;-1.68;80.20;100452.10;215410;1276;141266;-71
2022/02/24 04:23:08;;;;;;;32.80;15.90;;;;;;;-1.66;80.20;100454.85;214872;1276;141421;-70
2022/02/24 04:28:12;;;;;;;29.10;13.90;;;;;;;-1.66;80.33;100450.33;213408;1276;140231;-69
2022/02/24 04:33:17;;;;;;;28.30;15.50;;;;;;;-1.66;80.38;100453.11;214928;1276;140938;-72
2022/02/24 04:38:22;;;;;;;28.60;13.40;;;;;;;-1.67;80.32;100443.46;215076;1276;140928;-69
2022/02/24 04:43:26;;;;;;;24.10;11.50;;;;;;;-1.69;80.55;100435.29;212974;1276;140366;-70
2022/02/24 04:48:31;;;;;;;30.90;15.00;;;;;;;-1.73;80.46;100431.58;214361;1276;141753;-75
2022/02/24 04:53:36;;;;;;;31.00;12.80;;;;;;;-1.74;80.61;100428.77;214321;1276;140554;-73
2022/02/24 04:58:40;;;;;;;18.70;12.60;;;;;;;-1.76;80.62;100435.67;213958;1276;140744;-71
2022/02/24 05:03:45;;;;;;;29.30;14.40;;;;;;;-1.75;80.82;100437.54;212898;1276;152148;-71
2022/02/24 05:08:49;;;;;;;36.20;16.90;;;;;;;-1.76;80.78;100433.58;212892;1276;140535;-71
2022/02/24 05:13:57;;;;;;;33.40;12.60;;;;;;;-1.77;80.86;100428.95;213227;1276;140213;-70
2022/02/24 05:19:01;;;;;;;28.10;13.60;;;;;;;-1.76;80.95;100433.27;214141;1276;140922;-72
2022/02/24 05:24:05;;;;;;;27.20;11.60;;;;;;;-1.77;80.85;100440.80;212929;1276;141198;-70
2022/02/24 05:29:11;;;;;;;26.00;12.20;;;;;;;-1.78;81.33;100435.84;213461;1276;140870;-71
2022/02/24 05:34:15;;;;;;;28.50;13.10;;;;;;;-1.76;81.22;100434.42;213054;1276;140459;-74
2022/02/24 05:39:19;;;;;;;26.60;13.20;;;;;;;-1.73;81.45;100426.67;213788;1276;140979;-68
2022/02/24 05:44:25;;;;;;;21.20;11.00;;;;;;;-1.68;81.37;100428.57;213926;1276;141314;-70
2022/02/24 05:49:30;;;;;;;33.20;14.40;;;;;;;-1.67;81.48;100426.73;212732;1276;140844;-71
2022/02/24 05:54:35;;;;;;;22.00;10.80;;;;;;;-1.64;81.27;100424.59;213851;1278;140559;-72
2022/02/24 05:59:39;;;;;;;27.40;11.90;;;;;;;-1.61;81.61;100423.02;214972;1276;141732;-72
2022/02/24 06:04:42;;;;;;;25.00;13.00;;;;;;;-1.55;81.58;100428.57;215201;1276;140733;-70
2022/02/24 06:09:47;;;;;;;24.10;10.20;;;;;;;-1.46;81.54;100428.95;215249;1276;141235;-71
2022/02/24 06:14:52;;;;;;;23.90;10.30;;;;;;;-1.36;81.50;100431.03;215715;1275;140836;-74
2022/02/24 06:19:56;;;;;;;27.20;14.80;;;;;;;-1.24;81.41;100422.61;215286;1276;141455;-77
2022/02/24 06:25:00;;;;;;;16.70;10.60;;;;;;;-1.12;81.44;100422.48;215377;1276;140845;-78
2022/02/24 06:30:05;;;;;;;21.60;10.60;;;;;;;-0.99;81.41;100418.73;214597;1274;140771;-74
2022/02/24 06:35:12;;;;;;;20.20;11.00;;;;;;;-0.88;81.38;100409.95;213128;1277;165371;-75
2022/02/24 06:40:16;;;;;;;26.80;12.30;;;;;;;-0.77;81.42;100408.38;213428;1277;140002;-70
2022/02/24 06:45:20;;;;;;;20.60;10.80;;;;;;;-0.65;81.50;100397.62;215516;1274;142404;-70
2022/02/24 06:50:24;;;;;;;15.60;8.50;;;;;;;-0.48;81.57;100391.80;215253;1276;141292;-73
2022/02/24 06:55:29;;;;;;;19.40;9.90;;;;;;;-0.31;81.41;100383.83;214259;1277;141188;-73
2022/02/24 07:00:34;;;;;;;17.30;10.10;;;;;;;-0.18;81.27;100376.10;213830;1277;141774;-74
2022/02/24 07:05:41;;;;;;;;;;;;;;;-0.02;81.07;100362.98;213560;1277;141384;-74
2022/02/24 07:10:45;;;;;;;24.50;10.50;;;;;;;0.32;81.08;100362.59;214746;1277;126393;-72
2022/02/24 07:15:48;;;;;;;21.20;10.20;;;;;;;1.04;80.96;100351.77;214042;1277;140553;-68
2022/02/24 07:20:52;;;;;;;23.20;11.60;;;;;;;1.98;80.75;100342.29;213223;1276;141853;-70
2022/02/24 07:25:57;;;;;;;24.50;11.30;;;;;;;3.38;79.54;100336.02;214432;1275;141878;-68
2022/02/24 07:31:04;;;;;;;27.90;12.30;;;;;;;4.71;77.99;100331.84;212687;1276;141136;-71
2022/02/24 07:36:09;;;;;;;20.90;12.90;;;;;;;5.79;76.42;100325.97;212775;1276;141405;-72
2022/02/24 07:41:13;;;;;;;26.20;11.40;;;;;;;6.42;75.25;100314.94;214320;1276;140692;-75
2022/02/24 07:46:18;;;;;;;20.30;12.10;;;;;;;6.96;74.42;100313.98;214590;1276;141583;-71
2022/02/24 07:51:23;;;;;;;21.50;10.80;;;;;;;7.24;72.83;100314.89;213953;1276;140002;-71
2022/02/24 07:56:27;;;;;;;22.70;10.40;;;;;;;7.40;72.38;100311.16;214907;1276;141178;-77
2022/02/24 08:01:31;;;;;;;16.90;9.50;;;;;;;7.39;71.36;100308.80;214083;1276;140396;-74
2022/02/24 08:06:35;;;;;;;20.10;10.40;;;;;;;7.29;70.89;100304.28;215128;1275;140359;-74
2022/02/24 08:11:39;;;;;;;23.50;11.00;;;;;;;6.93;70.00;100289.38;215856;1276;140061;-72
2022/02/24 08:16:43;;;;;;;15.50;10.00;;;;;;;6.88;70.47;100283.29;215728;1276;140434;-71
2022/02/24 08:21:47;;;;;;;18.90;10.80;;;;;;;6.86;69.72;100282.88;214655;1276;140856;-71
2022/02/24 08:26:51;;;;;;;17.50;9.20;;;;;;;6.69;68.73;100275.34;214462;1277;139876;-70
2022/02/24 08:31:55;;;;;;;16.00;8.00;;;;;;;6.65;69.06;100268.30;215673;1276;140795;-76
2022/02/24 08:37:00;;;;;;;18.60;9.60;;;;;;;6.69;69.04;100254.19;215685;1276;141515;-72
2022/02/24 08:42:04;;;;;;;18.40;8.90;;;;;;;6.62;68.48;100248.52;214958;1276;139495;-73
2022/02/24 08:47:09;;;;;;;19.10;9.40;;;;;;;6.58;68.38;100236.89;213409;1276;140833;-67
2022/02/24 08:52:13;;;;;;;20.50;10.00;;;;;;;6.70;68.49;100224.48;214250;1276;139689;-69
2022/02/24 08:57:17;;;;;;;18.10;8.50;;;;;;;6.80;68.01;100213.66;214513;1276;141661;-68
2022/02/24 09:02:22;;;;;;;20.70;10.20;;;;;;;6.84;67.64;100201.08;213877;1276;139994;-74
2022/02/24 09:07:27;;;;;;;10.90;6.50;;;;;;;7.02;68.20;100192.53;212907;1276;140869;-70
2022/02/24 09:12:54;;;;;;;16.50;8.30;;;;;;;7.20;67.31;100176.78;214232;1276;140852;-73
2022/02/24 09:18:02;;;;;;;19.70;8.80;;;;;;;7.26;66.81;100168.35;213118;1276;139574;-72
2022/02/24 09:23:07;;;;;;;11.60;6.90;;;;;;;7.40;66.76;100159.73;213233;1277;139196;-68
2022/02/24 09:28:15;;;;;;;14.90;6.50;;;;;;;7.58;66.14;100151.96;213792;1277;141406;-70
2022/02/24 09:33:20;;;;;;;18.50;6.10;;;;;;;7.72;65.82;100139.23;213009;1277;139887;-72
2022/02/24 09:38:25;;;;;;;13.70;7.30;;;;;;;7.87;65.18;100129.38;212484;1277;140810;-72
2022/02/24 09:43:31;;;;;;;14.40;5.00;;;;;;;7.99;64.87;100126.58;214530;1277;139941;-71
2022/02/24 09:48:41;;;;;;;9.00;5.00;;;;;;;8.17;64.98;100120.89;214327;1277;140212;-72
2022/02/24 09:53:48;;;;;;;15.30;5.80;;;;;;;8.32;64.18;100115.39;212955;1277;139492;-69
2022/02/24 09:58:52;;;;;;;11.00;5.60;;;;;;;8.49;64.38;100111.35;214051;1277;139411;-72
2022/02/24 10:04:03;;;;;;;10.90;5.50;;;;;;;8.72;63.88;100095.08;214251;1277;139477;-73
2022/02/24 10:09:09;;;;;;;6.80;4.50;;;;;;;8.86;63.04;100076.79;214152;1277;139288;-68
2022/02/24 10:14:20;;;;;;;11.00;5.10;;;;;;;9.02;62.80;100070.81;214170;1277;139831;-70
2022/02/24 10:19:27;;;;;;;9.90;4.20;;;;;;;9.19;62.25;100054.92;213893;1277;139769;-68
2022/02/24 10:24:31;;;;;;;10.50;6.80;;;;;;;9.30;62.03;100047.10;215778;1277;140267;-70
2022/02/24 10:29:35;;;;;;;10.60;5.20;;;;;;;9.40;61.11;100042.59;215648;1276;139753;-71
2022/02/24 10:34:40;;;;;;;13.30;4.90;;;;;;;9.50;60.75;100032.20;215563;1276;140297;-72
2022/02/24 10:39:44;;;;;;;11.90;5.70;;;;;;;9.67;60.74;100026.45;215567;1276;139746;-73
2022/02/24 10:45:05;;;;;;;8.90;4.90;;;;;;;9.76;59.68;100015.07;215815;1276;140343;-74
2022/02/24 10:50:13;;;;;;;13.70;5.30;;;;;;;9.74;58.98;100004.06;214120;1276;140137;-73
2022/02/24 10:55:20;;;;;;;9.80;4.70;;;;;;;9.78;58.81;99994.02;214575;1276;141413;-72
2022/02/24 11:00:24;;;;;;;16.00;7.10;;;;;;;9.87;58.40;99986.29;214068;1277;142276;-74
2022/02/24 11:05:29;;;;;;;14.30;7.10;;;;;;;9.99;58.17;99983.65;213770;1277;140947;-74
2022/02/24 11:10:37;;;;;;;10.70;6.40;;;;;;;10.11;58.27;99970.33;213218;1277;139472;-74
2022/02/24 11:15:42;;;;;;;15.70;7.30;;;;;;;10.25;57.73;99967.59;213357;1277;140175;-75
2022/02/24 11:20:47;;;;;;;7.40;5.30;;;;;;;10.22;57.10;99963.23;213852;1277;140049;-74
2022/02/24 11:25:54;;;;;;;12.20;5.80;;;;;;;10.13;56.32;99951.84;212700;1277;139774;-74
2022/02/24 11:31:05;;;;;;;19.50;5.50;;;;;;;10.14;56.59;99950.11;213174;1277;140609;-73
2022/02/24 11:36:16;;;;;;;15.20;6.80;;;;;;;10.25;56.52;99932.63;213121;1277;141785;-74
2022/02/24 11:41:25;;;;;;;10.10;6.00;;;;;;;10.40;56.91;99922.25;213482;1277;144656;-73
2022/02/24 11:46:28;;;;;;;;;;;;;;;10.55;56.29;99902.92;212750;1277;140802;-73
2022/02/24 11:51:31;;;;;;;9.60;5.50;;;;;;;10.57;56.17;99889.23;214745;1276;128871;-75
2022/02/24 11:56:34;;;;;;;14.50;5.70;;;;;;;10.67;55.47;99878.16;212871;1277;140704;-73
2022/02/24 12:01:41;;;;;;;13.00;5.40;;;;;;;10.73;55.36;99863.58;213128;1277;154069;-74
2022/02/24 12:06:50;;;;;;;11.00;5.80;;;;;;;10.84;54.93;99851.59;213339;1277;140587;-74
2022/02/24 12:11:57;;;;;;;13.30;5.20;;;;;;;10.90;54.76;99834.15;214503;1276;140103;-75
2022/02/24 12:17:04;;;;;;;12.30;5.60;;;;;;;10.81;53.86;99820.94;215228;1276;140696;-75
2022/02/24 12:22:15;;;;;;;6.80;3.50;;;;;;;10.69;53.70;99809.01;214085;1277;140083;-73
2022/02/24 12:27:38;;;;;;;9.60;4.60;;;;;;;10.66;53.43;99793.05;214319;1275;140344;-75
2022/02/24 12:32:47;;;;;;;10.40;4.50;;;;;;;10.63;53.09;99778.65;214409;1276;140372;-74
2022/02/24 12:37:52;;;;;;;13.00;5.40;;;;;;;10.65;53.30;99765.15;214722;1276;139553;-75
2022/02/24 12:42:57;;;;;;;7.80;4.00;;;;;;;10.72;53.18;99757.98;215408;1274;140980;-73
2022/02/24 12:48:04;;;;;;;9.40;4.80;;;;;;;10.60;52.52;99747.23;215736;1274;140162;-74
2022/02/24 12:53:16;;;;;;;11.30;5.70;;;;;;;10.37;52.68;99734.48;214776;1274;141240;-74
2022/02/24 12:58:21;;;;;;;8.70;5.10;;;;;;;10.32;52.90;99718.95;214168;1274;139602;-75
2022/02/24 13:03:27;;;;;;;7.90;4.80;;;;;;;10.25;52.54;99697.51;213897;1276;141126;-75
2022/02/24 13:13:59;;;;;;;9.70;4.00;;;;;;;10.05;52.04;99657.45;212761;1274;141061;-69
2022/02/24 13:19:04;;;;;;;15.10;6.80;;;;;;;9.94;51.60;99650.98;213980;1274;141721;-73
2022/02/24 13:24:08;;;;;;;9.30;4.30;;;;;;;9.88;52.26;99653.58;213191;1276;141544;-74
2022/02/24 13:29:13;;;;;;;8.50;4.50;;;;;;;9.85;52.30;99643.51;213235;1275;142115;-76
2022/02/24 13:34:22;;;;;;;7.90;5.50;;;;;;;9.90;51.98;99626.91;214051;1274;140930;-74
2022/02/24 13:39:31;;;;;;;10.50;4.50;;;;;;;10.09;51.98;99613.42;213223;1276;141801;-75
2022/02/24 13:44:42;;;;;;;8.50;4.80;;;;;;;10.25;51.93;99602.50;213094;1274;140298;-73
2022/02/24 13:49:46;;;;;;;16.00;5.50;;;;;;;10.40;52.14;99599.53;214074;1276;141714;-74
2022/02/24 13:55:09;;;;;;;10.40;5.60;;;;;;;10.39;52.01;99588.55;214249;1274;140504;-74
2022/02/24 14:00:14;;;;;;;8.00;4.70;;;;;;;10.41;51.89;99580.80;214820;1274;141075;-73
2022/02/24 14:05:18;;;;;;;7.10;4.70;;;;;;;10.52;51.41;99572.36;214523;1274;140945;-71
2022/02/24 14:10:21;;;;;;;10.00;4.50;;;;;;;10.53;51.27;99564.38;213933;1274;140500;-76
2022/02/24 14:15:34;;;;;;;12.70;5.70;;;;;;;10.47;50.92;99561.39;215511;1274;140993;-75
2022/02/24 14:20:38;;;;;;;12.70;5.60;;;;;;;10.32;50.45;99563.64;215614;1274;139598;-75
2022/02/24 14:25:42;;;;;;;6.80;4.60;;;;;;;10.19;50.93;99559.05;213198;1274;141052;-74
2022/02/24 14:30:46;;;;;;;8.20;4.70;;;;;;;10.11;51.00;99558.91;212470;1275;1012066;-74
2022/02/24 14:35:51;;;;;;;7.50;3.60;;;;;;;9.99;50.92;99546.54;215840;1276;141970;-74
2022/02/24 14:40:57;;;;;;;6.80;3.30;;;;;;;9.84;51.04;99536.38;215835;1274;139557;-75
2022/02/24 14:46:02;;;;;;;5.80;3.50;;;;;;;9.76;50.83;99534.34;215822;1274;140049;-75
2022/02/24 14:51:07;;;;;;;10.50;3.50;;;;;;;9.73;51.18;99532.27;214753;1274;139664;-75
2022/02/24 14:56:14;;;;;;;7.50;4.40;;;;;;;9.74;51.09;99530.60;215294;1274;140416;-74
2022/02/24 15:01:18;;;;;;;6.40;3.90;;;;;;;9.80;51.16;99527.12;215214;1276;140371;-74
2022/02/24 15:06:22;;;;;;;7.80;4.80;;;;;;;9.79;50.89;99513.63;215480;1274;140421;-75
2022/02/24 15:11:27;;;;;;;6.90;4.70;;;;;;;9.75;51.08;99508.42;214325;1274;140255;-70
2022/02/24 15:16:33;;;;;;;7.00;3.40;;;;;;;9.66;51.08;99497.67;214094;1274;141541;-68
2022/02/24 15:21:37;;;;;;;6.90;4.50;;;;;;;9.55;51.19;99492.14;213508;1273;139328;-72
2022/02/24 15:26:47;;;;;;;6.80;4.70;;;;;;;9.43;51.08;99478.02;212936;1275;139292;-73
2022/02/24 15:31:52;;;;;;;8.90;4.40;;;;;;;9.28;51.64;99461.58;214753;1274;140771;-74
2022/02/24 15:36:56;;;;;;;9.60;5.70;;;;;;;9.17;51.76;99460.65;214335;1274;139769;-74
2022/02/24 15:42:01;;;;;;;10.40;6.30;;;;;;;9.02;51.86;99453.55;213563;1274;138924;-73
2022/02/24 15:47:06;;;;;;;10.50;4.50;;;;;;;8.85;51.91;99448.48;213011;1274;139125;-71
2022/02/24 15:52:32;;;;;;;17.50;6.70;;;;;;;8.69;52.21;99453.77;213328;1276;139671;-70
2022/02/24 15:57:37;;;;;;;7.80;5.50;;;;;;;8.52;52.19;99449.55;214140;1274;140500;-75
2022/02/24 16:02:48;;;;;;;6.50;4.50;;;;;;;8.38;52.22;99444.48;213189;1274;139996;-72
2022/02/24 16:07:53;;;;;;;15.50;6.10;;;;;;;8.26;52.21;99439.25;215287;1274;140081;-74
2022/02/24 16:12:56;;;;;;;8.30;5.20;;;;;;;8.12;52.43;99437.66;213985;1274;139173;-74
2022/02/24 16:18:00;;;;;;;11.20;4.90;;;;;;;7.98;52.60;99426.89;213785;1276;139628;-74
2022/02/24 16:23:07;;;;;;;9.40;4.60;;;;;;;7.86;52.81;99426.58;213620;1274;140301;-77
2022/02/24 16:28:13;;;;;;;12.40;5.30;;;;;;;7.71;52.95;99417.86;214763;1274;139612;-75
2022/02/24 16:33:17;;;;;;;13.50;6.30;;;;;;;7.52;53.28;99418.27;215465;1274;139604;-74
2022/02/24 16:38:26;;;;;;;11.70;6.10;;;;;;;7.38;53.61;99415.25;214264;1274;140413;-75
2022/02/24 16:43:31;;;;;;;10.30;5.60;;;;;;;7.27;53.61;99408.33;215751;1274;140350;-77
2022/02/24 16:48:34;;;;;;;12.70;6.20;;;;;;;7.15;53.62;99413.46;215902;1274;143352;-77
2022/02/24 16:53:38;;;;;;;15.60;6.20;;;;;;;7.03;54.35;99412.98;214179;1274;140660;-72
2022/02/24 16:58:42;;;;;;;18.60;7.40;;;;;;;6.94;54.47;99413.33;215723;1274;140399;-75
2022/02/24 17:03:46;;;;;;;12.10;6.70;;;;;;;6.85;55.09;99414.75;215662;1274;140858;-78
2022/02/24 17:08:50;;;;;;;12.70;7.40;;;;;;;6.77;54.96;99408.70;214410;1274;140455;-74
2022/02/24 17:13:54;;;;;;;18.00;7.60;;;;;;;6.66;55.54;99408.48;214199;1274;142972;-74
2022/02/24 17:18:58;;;;;;;11.70;6.60;;;;;;;6.58;55.42;99399.63;215431;1274;139598;-75
2022/02/24 17:24:05;;;;;;;13.30;8.50;;;;;;;6.48;55.97;99394.29;214079;1274;141524;-75
2022/02/24 17:29:10;;;;;;;27.20;8.10;;;;;;;6.34;55.84;99386.67;213830;1274;140820;-74
2022/02/24 17:34:15;;;;;;;13.70;6.10;;;;;;;6.22;56.17;99385.04;213842;1275;139378;-73
2022/02/24 17:39:20;;;;;;;17.20;8.40;;;;;;;6.09;56.34;99378.78;213895;1274;139497;-73
2022/02/24 17:44:25;;;;;;;16.10;8.30;;;;;;;5.95;56.44;99376.72;213346;1274;139871;-73
2022/02/24 17:49:30;;;;;;;19.30;9.10;;;;;;;5.85;57.17;99382.52;213248;1276;139539;-74
2022/02/24 17:54:33;;;;;;;16.20;8.70;;;;;;;5.74;57.24;99373.03;213576;1274;140300;-75
2022/02/24 17:59:38;;;;;;;11.50;7.40;;;;;;;5.63;57.98;99359.46;213039;1274;140639;-71
2022/02/24 18:04:42;;;;;;;15.80;7.30;;;;;;;5.56;58.37;99358.23;213327;1276;141246;-74
2022/02/24 18:09:47;;;;;;;9.80;5.80;;;;;;;5.54;58.86;99352.18;213674;1273;162667;-75
2022/02/24 18:14:51;;;;;;;8.20;3.50;;;;;;;5.55;59.18;99350.42;213111;1274;140703;-75
2022/02/24 18:19:55;;;;;;;12.40;7.50;;;;;;;5.60;59.76;99346.45;213437;1274;139697;-74
2022/02/24 18:24:59;;;;;;;10.20;5.30;;;;;;;5.63;59.73;99345.05;214596;1274;139623;-74
2022/02/24 18:30:05;;;;;;;5.40;3.10;;;;;;;5.68;59.70;99339.79;215051;1274;141017;-68
2022/02/24 18:35:10;;;;;;;12.90;4.20;;;;;;;5.74;60.14;99333.13;215728;1276;160706;-78
2022/02/24 18:40:13;;;;;;;8.40;4.10;;;;;;;5.79;60.37;99329.35;215000;1274;141362;-75
2022/02/24 18:45:18;;;;;;;10.60;5.60;;;;;;;5.82;60.33;99326.64;212990;1274;140877;-73
2022/02/24 18:50:21;;;;;;;5.60;3.30;;;;;;;5.83;60.10;99328.83;215526;1274;140111;-76
2022/02/24 18:55:41;;;;;;;14.70;5.60;;;;;;;5.82;60.36;99322.55;215988;1274;141025;-72
2022/02/24 19:00:45;;;;;;;5.80;2.80;;;;;;;5.82;60.37;99317.27;215970;1274;142146;-76
2022/02/24 19:05:49;;;;;;;11.50;6.20;;;;;;;5.83;60.62;99311.69;215030;1274;139617;-76
2022/02/24 19:10:53;;;;;;;6.30;4.10;;;;;;;5.83;60.69;99301.91;214759;1274;140730;-76
2022/02/24 19:15:57;;;;;;;4.20;2.70;;;;;;;5.86;61.06;99292.41;212947;1275;139244;-74
2022/02/24 19:21:01;;;;;;;11.60;4.40;;;;;;;5.87;60.85;99282.61;214803;1274;141513;-76
2022/02/24 19:26:06;;;;;;;9.40;5.00;;;;;;;5.87;61.27;99275.52;214455;1274;139848;-72
2022/02/24 19:31:11;;;;;;;9.70;6.30;;;;;;;5.86;61.26;99277.89;214594;1274;139386;-75
2022/02/24 19:36:15;;;;;;;9.10;4.90;;;;;;;5.87;61.38;99269.91;213735;1274;139631;-72
2022/02/24 19:41:19;;;;;;;8.40;5.50;;;;;;;5.87;61.40;99266.77;214303;1274;139383;-75
2022/02/24 19:46:22;;;;;;;7.00;4.30;;;;;;;5.88;61.60;99259.02;212848;1275;139525;-75
2022/02/24 19:51:27;;;;;;;9.90;5.40;;;;;;;5.87;61.69;99253.42;213266;1274;138778;-74
2022/02/24 19:56:31;;;;;;;8.00;4.40;;;;;;;5.86;61.81;99249.73;213611;1274;139539;-76
2022/02/24 20:01:35;;;;;;;11.80;4.60;;;;;;;5.84;61.82;99242.63;213091;1275;139088;-75
2022/02/24 20:06:39;;;;;;;9.30;5.70;;;;;;;5.83;62.18;99242.59;213839;1274;140203;-75
2022/02/24 20:11:44;;;;;;;7.10;5.00;;;;;;;5.81;62.13;99239.27;213844;1274;140157;-69
2022/02/24 20:16:49;;;;;;;11.70;5.70;;;;;;;5.79;62.21;99235.77;213436;1274;140647;-76
2022/02/24 20:21:59;;;;;;;8.30;5.50;;;;;;;5.78;62.40;99226.06;214849;1274;139332;-75
2022/02/24 20:27:04;;;;;;;9.40;5.20;;;;;;;5.77;62.62;99223.13;214684;1274;140375;-78
2022/02/24 20:32:10;;;;;;;8.30;5.10;;;;;;;5.78;62.64;99225.89;214953;1274;140545;-78
2022/02/24 20:37:16;;;;;;;10.80;7.00;;;;;;;5.76;62.76;99214.75;215646;1274;139962;-77
2022/02/24 20:42:20;;;;;;;11.40;6.90;;;;;;;5.77;62.77;99212.18;213157;1274;140964;-77
2022/02/24 20:47:27;;;;;;;8.20;4.60;;;;;;;5.82;62.75;99205.34;214162;1274;140614;-76
2022/02/24 20:52:33;;;;;;;8.20;5.70;;;;;;;5.83;62.90;99202.97;213006;1274;140004;-75
2022/02/24 20:57:38;;;;;;;14.40;6.20;;;;;;;5.82;62.86;99198.25;213900;1274;140763;-76
2022/02/24 21:02:43;;;;;;;13.50;6.00;;;;;;;5.85;63.22;99188.70;214536;1274;140578;-76
2022/02/24 21:07:47;;;;;;;9.10;4.80;;;;;;;5.87;62.92;99187.34;214475;1274;139563;-74
2022/02/24 21:12:51;;;;;;;9.40;5.00;;;;;;;5.92;63.15;99176.05;214952;1275;139283;-76
2022/02/24 21:17:55;;;;;;;10.40;4.80;;;;;;;5.99;63.32;99175.23;214230;1275;139963;-73
2022/02/24 21:22:58;;;;;;;12.20;5.50;;;;;;;6.05;63.22;99172.40;213148;1276;141489;-73
2022/02/24 21:28:04;;;;;;;10.30;5.10;;;;;;;6.07;63.29;99163.42;215201;1274;153540;-72
2022/02/24 21:33:08;;;;;;;9.80;6.50;;;;;;;6.10;63.17;99156.23;214221;1275;139676;-68
2022/02/24 21:38:12;;;;;;;6.40;4.40;;;;;;;6.12;62.98;99152.89;212924;1274;139702;-73
2022/02/24 21:43:15;;;;;;;33.90;7.60;;;;;;;6.14;63.07;99140.86;213567;1274;140785;-74
2022/02/24 21:48:23;;;;;;;22.40;11.90;;;;;;;6.14;63.25;99135.85;213414;1276;141052;-74
2022/02/24 21:53:31;;;;;;;11.90;7.90;;;;;;;6.14;63.12;99131.09;214100;1276;140972;-73
2022/02/24 21:58:35;;;;;;;9.90;6.20;;;;;;;6.15;63.15;99126.19;213848;1276;140032;-72
2022/02/24 22:03:40;;;;;;;7.70;4.00;;;;;;;6.18;63.44;99123.02;214668;1274;141088;-77
2022/02/24 22:08:48;;;;;;;8.60;6.00;;;;;;;6.23;63.38;99121.67;216048;1274;140421;-75
2022/02/24 22:13:56;;;;;;;8.90;4.40;;;;;;;6.30;63.28;99119.02;213575;1276;140018;-71
2022/02/24 22:19:01;;;;;;;7.90;4.60;;;;;;;6.36;63.29;99119.89;215307;1274;141060;-72
2022/02/24 22:24:06;;;;;;;10.30;4.80;;;;;;;6.41;63.28;99109.16;214259;1274;139249;-73
2022/02/24 22:29:10;;;;;;;16.00;5.90;;;;;;;6.46;63.39;99098.41;214505;1274;139571;-72
2022/02/24 22:34:14;;;;;;;8.60;4.90;;;;;;;6.50;63.39;99094.58;213979;1274;140030;-69
2022/02/24 22:39:19;;;;;;;9.60;5.90;;;;;;;6.53;63.07;99088.55;213624;1274;140383;-70
2022/02/24 22:44:23;;;;;;;8.10;4.20;;;;;;;6.56;63.11;99095.90;213280;1274;140393;-70
2022/02/24 22:49:28;;;;;;;5.50;2.90;;;;;;;6.59;63.41;99111.71;214243;1275;140045;-68
2022/02/24 22:54:32;;;;;;;7.80;4.60;;;;;;;6.62;63.23;99115.45;215943;1274;140774;-71
2022/02/24 22:59:36;;;;;;;8.00;4.30;;;;;;;6.65;63.33;99102.41;215344;1274;140626;-73
2022/02/24 23:10:04;;;;;;;10.00;4.60;;;;;;;6.71;62.92;99081.44;213696;1274;140803;-67
2022/02/24 23:15:08;;;;;;;5.30;3.90;;;;;;;6.73;62.73;99080.03;214265;1274;140085;-72
2022/02/24 23:20:14;;;;;;;6.10;4.90;;;;;;;6.75;63.26;99081.63;213612;1274;140413;-72